sensor_id;sensor_type;location;lat;lon;timestamp;temperature;humidity
2749;DHT22;1382;52.142;11.618;2024-02-26T00:00:15;7.80;56.60
2749;DHT22;1382;52.142;11.618;2024-02-26T00:02:42;7.80;56.60
2749;DHT22;1382;52.142;11.618;2024-02-26T00:05:09;7.80;56.60
2749;DHT22;1382;52.142;11.618;2024-02-26T00:07:36;7.80;56.60
2749;DHT22;1382;52.142;11.618;2024-02-26T00:10:03;7.80;56.60
2749;DHT22;1382;52.142;11.618;2024-02-26T00:12:30;7.80;56.60
2749;DHT22;1382;52.142;11.618;2024-02-26T00:14:57;7.80;56.50
2749;DHT22;1382;52.142;11.618;2024-02-26T00:17:26;7.70;56.40
2749;DHT22;1382;52.142;11.618;2024-02-26T00:19:53;7.70;56.50
2749;DHT22;1382;52.142;11.618;2024-02-26T00:22:20;7.70;56.40
2749;DHT22;1382;52.142;11.618;2024-02-26T00:24:46;7.70;56.40
2749;DHT22;1382;52.142;11.618;2024-02-26T00:27:14;7.70;56.30
2749;DHT22;1382;52.142;11.618;2024-02-26T00:29:41;7.60;56.20
2749;DHT22;1382;52.142;11.618;2024-02-26T00:32:07;7.60;56.20
2749;DHT22;1382;52.142;11.618;2024-02-26T00:34:36;7.60;56.20
2749;DHT22;1382;52.142;11.618;2024-02-26T00:37:03;7.50;56.10
2749;DHT22;1382;52.142;11.618;2024-02-26T00:39:30;7.50;56.10
2749;DHT22;1382;52.142;11.618;2024-02-26T00:41:56;7.50;56.10
2749;DHT22;1382;52.142;11.618;2024-02-26T00:44:23;7.50;56.10
2749;DHT22;1382;52.142;11.618;2024-02-26T00:46:50;7.50;56.10
2749;DHT22;1382;52.142;11.618;2024-02-26T00:49:17;7.40;56.00
2749;DHT22;1382;52.142;11.618;2024-02-26T00:51:46;7.40;56.00
2749;DHT22;1382;52.142;11.618;2024-02-26T00:54:12;7.40;56.00
2749;DHT22;1382;52.142;11.618;2024-02-26T00:56:39;7.40;56.00
2749;DHT22;1382;52.142;11.618;2024-02-26T00:59:06;7.30;56.00
2749;DHT22;1382;52.142;11.618;2024-02-26T01:01:33;7.30;56.00
2749;DHT22;1382;52.142;11.618;2024-02-26T01:04:00;7.30;56.10
2749;DHT22;1382;52.142;11.618;2024-02-26T01:06:27;7.20;55.90
2749;DHT22;1382;52.142;11.618;2024-02-26T01:08:55;7.20;56.00
2749;DHT22;1382;52.142;11.618;2024-02-26T01:11:22;7.20;56.10
2749;DHT22;1382;52.142;11.618;2024-02-26T01:13:49;7.10;56.00
2749;DHT22;1382;52.142;11.618;2024-02-26T01:16:16;7.10;56.00
2749;DHT22;1382;52.142;11.618;2024-02-26T01:18:43;7.10;56.10
2749;DHT22;1382;52.142;11.618;2024-02-26T01:21:10;7.10;56.10
2749;DHT22;1382;52.142;11.618;2024-02-26T01:23:37;7.10;56.10
2749;DHT22;1382;52.142;11.618;2024-02-26T01:26:05;6.80;55.80
2749;DHT22;1382;52.142;11.618;2024-02-26T01:28:32;7.00;56.00
2749;DHT22;1382;52.142;11.618;2024-02-26T01:30:59;6.90;56.00
2749;DHT22;1382;52.142;11.618;2024-02-26T01:33:26;6.90;56.00
2749;DHT22;1382;52.142;11.618;2024-02-26T01:35:53;6.90;56.00
2749;DHT22;1382;52.142;11.618;2024-02-26T01:38:20;6.90;56.00
2749;DHT22;1382;52.142;11.618;2024-02-26T01:40:46;6.80;55.90
2749;DHT22;1382;52.142;11.618;2024-02-26T01:43:15;6.80;56.00
2749;DHT22;1382;52.142;11.618;2024-02-26T01:45:41;6.70;55.90
2749;DHT22;1382;52.142;11.618;2024-02-26T01:48:08;6.70;55.90
2749;DHT22;1382;52.142;11.618;2024-02-26T01:50:35;6.70;56.00
2749;DHT22;1382;52.142;11.618;2024-02-26T01:53:02;6.70;56.00
2749;DHT22;1382;52.142;11.618;2024-02-26T01:55:29;6.60;56.00
2749;DHT22;1382;52.142;11.618;2024-02-26T01:57:56;6.60;56.00
2749;DHT22;1382;52.142;11.618;2024-02-26T02:00:25;6.50;55.90
2749;DHT22;1382;52.142;11.618;2024-02-26T02:02:52;6.50;56.00
2749;DHT22;1382;52.142;11.618;2024-02-26T02:05:20;6.50;56.00
2749;DHT22;1382;52.142;11.618;2024-02-26T02:07:47;6.50;56.00
2749;DHT22;1382;52.142;11.618;2024-02-26T02:10:15;6.40;56.00
2749;DHT22;1382;52.142;11.618;2024-02-26T02:12:43;6.40;56.00
2749;DHT22;1382;52.142;11.618;2024-02-26T02:15:10;6.40;56.00
2749;DHT22;1382;52.142;11.618;2024-02-26T02:17:39;6.40;56.10
2749;DHT22;1382;52.142;11.618;2024-02-26T02:20:08;6.30;56.00
2749;DHT22;1382;52.142;11.618;2024-02-26T02:22:37;6.30;56.00
2749;DHT22;1382;52.142;11.618;2024-02-26T02:25:04;6.30;56.10
2749;DHT22;1382;52.142;11.618;2024-02-26T02:27:31;6.00;55.90
2749;DHT22;1382;52.142;11.618;2024-02-26T02:29:58;6.20;56.10
2749;DHT22;1382;52.142;11.618;2024-02-26T02:32:25;6.20;56.10
2749;DHT22;1382;52.142;11.618;2024-02-26T02:34:53;6.20;56.10
2749;DHT22;1382;52.142;11.618;2024-02-26T02:37:20;6.20;56.20
2749;DHT22;1382;52.142;11.618;2024-02-26T02:39:48;6.10;56.10
2749;DHT22;1382;52.142;11.618;2024-02-26T02:42:15;6.10;56.20
2749;DHT22;1382;52.142;11.618;2024-02-26T02:44:42;6.10;56.20
2749;DHT22;1382;52.142;11.618;2024-02-26T02:47:08;6.10;56.20
2749;DHT22;1382;52.142;11.618;2024-02-26T02:49:35;6.10;56.30
2749;DHT22;1382;52.142;11.618;2024-02-26T02:52:03;6.10;56.30
2749;DHT22;1382;52.142;11.618;2024-02-26T02:54:30;6.10;56.20
2749;DHT22;1382;52.142;11.618;2024-02-26T02:56:58;6.00;56.20
2749;DHT22;1382;52.142;11.618;2024-02-26T02:59:25;6.00;56.20
2749;DHT22;1382;52.142;11.618;2024-02-26T03:01:52;6.00;56.20
2749;DHT22;1382;52.142;11.618;2024-02-26T03:04:18;6.00;56.20
2749;DHT22;1382;52.142;11.618;2024-02-26T03:06:45;6.00;56.20
2749;DHT22;1382;52.142;11.618;2024-02-26T03:09:12;6.00;56.20
2749;DHT22;1382;52.142;11.618;2024-02-26T03:11:39;5.90;56.20
2749;DHT22;1382;52.142;11.618;2024-02-26T03:14:07;5.90;56.20
2749;DHT22;1382;52.142;11.618;2024-02-26T03:16:34;5.90;56.20
2749;DHT22;1382;52.142;11.618;2024-02-26T03:19:01;5.90;56.20
2749;DHT22;1382;52.142;11.618;2024-02-26T03:21:28;5.90;56.20
2749;DHT22;1382;52.142;11.618;2024-02-26T03:23:55;5.90;56.20
2749;DHT22;1382;52.142;11.618;2024-02-26T03:26:21;5.90;56.20
2749;DHT22;1382;52.142;11.618;2024-02-26T03:28:48;5.80;56.10
2749;DHT22;1382;52.142;11.618;2024-02-26T03:31:16;5.80;56.10
2749;DHT22;1382;52.142;11.618;2024-02-26T03:33:43;5.80;56.10
2749;DHT22;1382;52.142;11.618;2024-02-26T03:36:10;5.80;56.10
2749;DHT22;1382;52.142;11.618;2024-02-26T03:38:37;5.80;56.10
2749;DHT22;1382;52.142;11.618;2024-02-26T03:41:04;5.70;56.10
2749;DHT22;1382;52.142;11.618;2024-02-26T03:43:31;5.70;56.10
2749;DHT22;1382;52.142;11.618;2024-02-26T03:45:57;5.70;56.10
2749;DHT22;1382;52.142;11.618;2024-02-26T03:48:26;5.70;56.10
2749;DHT22;1382;52.142;11.618;2024-02-26T03:50:53;5.70;56.10
2749;DHT22;1382;52.142;11.618;2024-02-26T03:53:19;5.70;56.10
2749;DHT22;1382;52.142;11.618;2024-02-26T03:55:46;5.70;56.10
2749;DHT22;1382;52.142;11.618;2024-02-26T03:58:13;5.60;56.00
2749;DHT22;1382;52.142;11.618;2024-02-26T04:00:40;5.60;56.00
2749;DHT22;1382;52.142;11.618;2024-02-26T04:03:07;5.60;56.10
2749;DHT22;1382;52.142;11.618;2024-02-26T04:05:35;5.60;56.10
2749;DHT22;1382;52.142;11.618;2024-02-26T04:08:02;5.60;56.00
2749;DHT22;1382;52.142;11.618;2024-02-26T04:10:29;5.50;56.00
2749;DHT22;1382;52.142;11.618;2024-02-26T04:12:55;5.50;56.00
2749;DHT22;1382;52.142;11.618;2024-02-26T04:15:22;5.50;56.10
2749;DHT22;1382;52.142;11.618;2024-02-26T04:17:49;5.60;56.20
2749;DHT22;1382;52.142;11.618;2024-02-26T04:20:16;5.50;56.10
2749;DHT22;1382;52.142;11.618;2024-02-26T04:22:44;5.50;56.70
2749;DHT22;1382;52.142;11.618;2024-02-26T04:25:11;5.50;56.00
2749;DHT22;1382;52.142;11.618;2024-02-26T04:27:38;5.50;56.00
2749;DHT22;1382;52.142;11.618;2024-02-26T04:30:06;5.50;56.00
2749;DHT22;1382;52.142;11.618;2024-02-26T04:32:33;5.40;55.90
2749;DHT22;1382;52.142;11.618;2024-02-26T04:35:00;5.50;56.00
2749;DHT22;1382;52.142;11.618;2024-02-26T04:37:27;5.40;55.90
2749;DHT22;1382;52.142;11.618;2024-02-26T04:39:55;5.40;56.60
2749;DHT22;1382;52.142;11.618;2024-02-26T04:42:21;5.40;55.90
2749;DHT22;1382;52.142;11.618;2024-02-26T04:44:48;5.50;56.00
2749;DHT22;1382;52.142;11.618;2024-02-26T04:47:15;5.40;56.10
2749;DHT22;1382;52.142;11.618;2024-02-26T04:49:42;5.40;55.90
2749;DHT22;1382;52.142;11.618;2024-02-26T04:52:11;5.30;55.80
2749;DHT22;1382;52.142;11.618;2024-02-26T04:54:38;5.30;55.80
2749;DHT22;1382;52.142;11.618;2024-02-26T04:57:06;5.30;55.80
2749;DHT22;1382;52.142;11.618;2024-02-26T04:59:33;5.30;55.90
2749;DHT22;1382;52.142;11.618;2024-02-26T05:02:00;5.20;55.80
2749;DHT22;1382;52.142;11.618;2024-02-26T05:04:27;5.20;55.80
2749;DHT22;1382;52.142;11.618;2024-02-26T05:06:54;5.20;55.80
2749;DHT22;1382;52.142;11.618;2024-02-26T05:09:21;5.20;55.80
2749;DHT22;1382;52.142;11.618;2024-02-26T05:11:48;5.20;55.90
2749;DHT22;1382;52.142;11.618;2024-02-26T05:14:16;5.20;55.90
2749;DHT22;1382;52.142;11.618;2024-02-26T05:16:43;5.10;55.80
2749;DHT22;1382;52.142;11.618;2024-02-26T05:19:10;5.30;56.00
2749;DHT22;1382;52.142;11.618;2024-02-26T05:21:37;5.10;55.80
2749;DHT22;1382;52.142;11.618;2024-02-26T05:24:04;5.10;55.90
2749;DHT22;1382;52.142;11.618;2024-02-26T05:26:31;5.10;55.90
2749;DHT22;1382;52.142;11.618;2024-02-26T05:28:58;5.00;55.80
2749;DHT22;1382;52.142;11.618;2024-02-26T05:31:27;5.00;55.80
2749;DHT22;1382;52.142;11.618;2024-02-26T05:33:54;5.20;56.00
2749;DHT22;1382;52.142;11.618;2024-02-26T05:36:21;5.00;55.80
2749;DHT22;1382;52.142;11.618;2024-02-26T05:38:51;5.00;55.90
2749;DHT22;1382;52.142;11.618;2024-02-26T05:41:18;5.20;56.10
2749;DHT22;1382;52.142;11.618;2024-02-26T05:43:45;5.00;55.90
2749;DHT22;1382;52.142;11.618;2024-02-26T05:46:16;5.00;55.90
2749;DHT22;1382;52.142;11.618;2024-02-26T05:48:50;5.00;55.90
2749;DHT22;1382;52.142;11.618;2024-02-26T05:51:17;5.20;56.10
2749;DHT22;1382;52.142;11.618;2024-02-26T05:53:44;5.00;56.10
2749;DHT22;1382;52.142;11.618;2024-02-26T05:56:14;5.00;56.00
2749;DHT22;1382;52.142;11.618;2024-02-26T05:58:41;5.00;56.00
2749;DHT22;1382;52.142;11.618;2024-02-26T06:01:08;5.00;56.00
2749;DHT22;1382;52.142;11.618;2024-02-26T06:03:35;5.00;56.00
2749;DHT22;1382;52.142;11.618;2024-02-26T06:06:04;5.00;56.10
2749;DHT22;1382;52.142;11.618;2024-02-26T06:08:31;5.00;56.00
2749;DHT22;1382;52.142;11.618;2024-02-26T06:10:58;5.00;56.00
2749;DHT22;1382;52.142;11.618;2024-02-26T06:13:25;5.00;55.90
2749;DHT22;1382;52.142;11.618;2024-02-26T06:15:52;4.90;55.90
2749;DHT22;1382;52.142;11.618;2024-02-26T06:18:19;5.00;55.90
2749;DHT22;1382;52.142;11.618;2024-02-26T06:20:46;5.00;56.00
2749;DHT22;1382;52.142;11.618;2024-02-26T06:23:14;5.10;56.00
2749;DHT22;1382;52.142;11.618;2024-02-26T06:25:41;5.00;55.90
2749;DHT22;1382;52.142;11.618;2024-02-26T06:28:08;4.90;55.90
2749;DHT22;1382;52.142;11.618;2024-02-26T06:30:35;4.90;55.90
2749;DHT22;1382;52.142;11.618;2024-02-26T06:33:02;5.00;55.90
2749;DHT22;1382;52.142;11.618;2024-02-26T06:35:29;5.00;56.00
2749;DHT22;1382;52.142;11.618;2024-02-26T06:37:56;5.00;55.90
2749;DHT22;1382;52.142;11.618;2024-02-26T06:40:24;5.10;56.10
2749;DHT22;1382;52.142;11.618;2024-02-26T06:42:51;5.10;56.10
2749;DHT22;1382;52.142;11.618;2024-02-26T06:45:18;5.00;56.00
2749;DHT22;1382;52.142;11.618;2024-02-26T06:47:45;5.00;56.10
2749;DHT22;1382;52.142;11.618;2024-02-26T06:50:12;5.10;56.20
2749;DHT22;1382;52.142;11.618;2024-02-26T06:52:39;5.00;56.10
2749;DHT22;1382;52.142;11.618;2024-02-26T06:55:06;5.00;56.10
2749;DHT22;1382;52.142;11.618;2024-02-26T06:57:35;5.00;56.20
2749;DHT22;1382;52.142;11.618;2024-02-26T07:00:02;5.00;56.30
2749;DHT22;1382;52.142;11.618;2024-02-26T07:02:29;5.10;56.50
2749;DHT22;1382;52.142;11.618;2024-02-26T07:04:56;5.10;56.50
2749;DHT22;1382;52.142;11.618;2024-02-26T07:07:23;5.20;56.60
2749;DHT22;1382;52.142;11.618;2024-02-26T07:09:49;5.20;56.60
2749;DHT22;1382;52.142;11.618;2024-02-26T07:12:16;5.20;56.60
2749;DHT22;1382;52.142;11.618;2024-02-26T07:14:44;5.20;56.60
2749;DHT22;1382;52.142;11.618;2024-02-26T07:17:11;5.30;56.60
2749;DHT22;1382;52.142;11.618;2024-02-26T07:19:38;5.30;56.60
2749;DHT22;1382;52.142;11.618;2024-02-26T07:22:05;5.40;56.80
2749;DHT22;1382;52.142;11.618;2024-02-26T07:24:32;5.40;56.80
2749;DHT22;1382;52.142;11.618;2024-02-26T07:26:59;5.40;56.90
2749;DHT22;1382;52.142;11.618;2024-02-26T07:29:26;5.50;57.00
2749;DHT22;1382;52.142;11.618;2024-02-26T07:31:55;5.50;56.80
2749;DHT22;1382;52.142;11.618;2024-02-26T07:34:22;5.50;56.80
2749;DHT22;1382;52.142;11.618;2024-02-26T07:36:49;5.60;56.80
2749;DHT22;1382;52.142;11.618;2024-02-26T07:39:16;5.60;56.80
2749;DHT22;1382;52.142;11.618;2024-02-26T07:41:43;5.60;56.80
2749;DHT22;1382;52.142;11.618;2024-02-26T07:44:10;5.70;56.90
2749;DHT22;1382;52.142;11.618;2024-02-26T07:46:37;5.70;57.00
2749;DHT22;1382;52.142;11.618;2024-02-26T07:49:05;5.80;57.30
2749;DHT22;1382;52.142;11.618;2024-02-26T07:51:32;5.80;57.20
2749;DHT22;1382;52.142;11.618;2024-02-26T07:53:59;5.90;57.20
2749;DHT22;1382;52.142;11.618;2024-02-26T07:56:26;6.00;57.10
2749;DHT22;1382;52.142;11.618;2024-02-26T07:58:53;5.90;57.10
2749;DHT22;1382;52.142;11.618;2024-02-26T08:01:20;5.90;57.20
2749;DHT22;1382;52.142;11.618;2024-02-26T08:03:46;6.10;57.60
2749;DHT22;1382;52.142;11.618;2024-02-26T08:06:16;6.00;57.80
2749;DHT22;1382;52.142;11.618;2024-02-26T08:08:43;6.30;58.10
2749;DHT22;1382;52.142;11.618;2024-02-26T08:11:10;6.10;57.90
2749;DHT22;1382;52.142;11.618;2024-02-26T08:13:37;6.10;58.10
2749;DHT22;1382;52.142;11.618;2024-02-26T08:16:05;6.20;58.20
2749;DHT22;1382;52.142;11.618;2024-02-26T08:18:32;6.20;58.10
2749;DHT22;1382;52.142;11.618;2024-02-26T08:20:59;6.30;58.00
2749;DHT22;1382;52.142;11.618;2024-02-26T08:23:27;6.30;58.30
2749;DHT22;1382;52.142;11.618;2024-02-26T08:25:54;6.40;58.50
2749;DHT22;1382;52.142;11.618;2024-02-26T08:28:21;6.40;58.70
2749;DHT22;1382;52.142;11.618;2024-02-26T08:30:48;6.50;58.60
2749;DHT22;1382;52.142;11.618;2024-02-26T08:33:15;6.60;58.90
2749;DHT22;1382;52.142;11.618;2024-02-26T08:35:53;6.70;59.10
2749;DHT22;1382;52.142;11.618;2024-02-26T08:38:20;6.80;59.00
2749;DHT22;1382;52.142;11.618;2024-02-26T08:40:48;6.80;58.80
2749;DHT22;1382;52.142;11.618;2024-02-26T08:43:15;7.10;59.50
2749;DHT22;1382;52.142;11.618;2024-02-26T08:45:42;7.00;58.70
2749;DHT22;1382;52.142;11.618;2024-02-26T08:48:09;7.10;58.40
2749;DHT22;1382;52.142;11.618;2024-02-26T08:50:36;7.30;58.30
2749;DHT22;1382;52.142;11.618;2024-02-26T08:53:03;7.20;58.30
2749;DHT22;1382;52.142;11.618;2024-02-26T08:55:33;7.30;58.20
2749;DHT22;1382;52.142;11.618;2024-02-26T08:58:01;7.40;58.20
2749;DHT22;1382;52.142;11.618;2024-02-26T09:00:28;7.50;58.50
2749;DHT22;1382;52.142;11.618;2024-02-26T09:02:55;7.60;58.40
2749;DHT22;1382;52.142;11.618;2024-02-26T09:05:22;7.60;58.20
2749;DHT22;1382;52.142;11.618;2024-02-26T09:07:49;7.70;58.30
2749;DHT22;1382;52.142;11.618;2024-02-26T09:10:16;7.80;58.10
2749;DHT22;1382;52.142;11.618;2024-02-26T09:12:43;7.80;57.80
2749;DHT22;1382;52.142;11.618;2024-02-26T09:15:11;8.00;57.70
2749;DHT22;1382;52.142;11.618;2024-02-26T09:17:38;8.00;57.50
2749;DHT22;1382;52.142;11.618;2024-02-26T09:20:05;8.10;57.30
2749;DHT22;1382;52.142;11.618;2024-02-26T09:22:32;8.10;57.30
2749;DHT22;1382;52.142;11.618;2024-02-26T09:24:59;8.30;57.40
2749;DHT22;1382;52.142;11.618;2024-02-26T09:27:26;8.30;57.40
2749;DHT22;1382;52.142;11.618;2024-02-26T09:29:53;8.40;57.50
2749;DHT22;1382;52.142;11.618;2024-02-26T09:32:21;8.40;57.30
2749;DHT22;1382;52.142;11.618;2024-02-26T09:34:48;8.70;57.30
2749;DHT22;1382;52.142;11.618;2024-02-26T09:37:15;8.60;57.20
2749;DHT22;1382;52.142;11.618;2024-02-26T09:39:48;8.70;57.10
2749;DHT22;1382;52.142;11.618;2024-02-26T09:42:18;8.90;57.30
2749;DHT22;1382;52.142;11.618;2024-02-26T09:44:45;8.80;57.00
2749;DHT22;1382;52.142;11.618;2024-02-26T09:47:12;8.90;56.90
2749;DHT22;1382;52.142;11.618;2024-02-26T09:49:42;9.00;57.00
2749;DHT22;1382;52.142;11.618;2024-02-26T09:52:09;9.00;56.90
2749;DHT22;1382;52.142;11.618;2024-02-26T09:54:36;9.10;56.90
2749;DHT22;1382;52.142;11.618;2024-02-26T09:57:05;9.20;56.70
2749;DHT22;1382;52.142;11.618;2024-02-26T09:59:39;9.20;56.60
2749;DHT22;1382;52.142;11.618;2024-02-26T10:02:09;9.30;56.80
2749;DHT22;1382;52.142;11.618;2024-02-26T10:04:38;9.40;56.90
2749;DHT22;1382;52.142;11.618;2024-02-26T10:07:10;9.50;57.10
2749;DHT22;1382;52.142;11.618;2024-02-26T10:09:37;9.80;57.70
2749;DHT22;1382;52.142;11.618;2024-02-26T10:12:05;9.70;56.80
2749;DHT22;1382;52.142;11.618;2024-02-26T10:14:33;9.80;57.00
2749;DHT22;1382;52.142;11.618;2024-02-26T10:17:00;9.90;57.60
2749;DHT22;1382;52.142;11.618;2024-02-26T10:19:28;10.00;56.70
2749;DHT22;1382;52.142;11.618;2024-02-26T10:21:56;10.10;56.70
2749;DHT22;1382;52.142;11.618;2024-02-26T10:24:25;10.00;56.40
2749;DHT22;1382;52.142;11.618;2024-02-26T10:26:52;10.20;56.50
2749;DHT22;1382;52.142;11.618;2024-02-26T10:29:19;10.30;56.40
2749;DHT22;1382;52.142;11.618;2024-02-26T10:31:46;10.40;56.10
2749;DHT22;1382;52.142;11.618;2024-02-26T10:34:14;10.40;56.20
2749;DHT22;1382;52.142;11.618;2024-02-26T10:36:42;10.40;56.30
2749;DHT22;1382;52.142;11.618;2024-02-26T10:39:19;10.50;56.30
2749;DHT22;1382;52.142;11.618;2024-02-26T10:41:47;10.60;56.30
2749;DHT22;1382;52.142;11.618;2024-02-26T10:44:14;10.60;56.00
2749;DHT22;1382;52.142;11.618;2024-02-26T10:46:46;10.60;55.50
2749;DHT22;1382;52.142;11.618;2024-02-26T10:49:14;10.60;55.50
2749;DHT22;1382;52.142;11.618;2024-02-26T10:51:44;10.70;55.60
2749;DHT22;1382;52.142;11.618;2024-02-26T10:54:15;10.70;55.70
2749;DHT22;1382;52.142;11.618;2024-02-26T10:56:42;10.70;54.80
2749;DHT22;1382;52.142;11.618;2024-02-26T10:59:11;10.70;54.80
2749;DHT22;1382;52.142;11.618;2024-02-26T11:01:39;10.60;54.50
2749;DHT22;1382;52.142;11.618;2024-02-26T11:04:06;10.70;54.60
2749;DHT22;1382;52.142;11.618;2024-02-26T11:06:36;10.70;54.50
2749;DHT22;1382;52.142;11.618;2024-02-26T11:09:05;10.70;54.60
2749;DHT22;1382;52.142;11.618;2024-02-26T11:11:34;10.80;54.70
2749;DHT22;1382;52.142;11.618;2024-02-26T11:14:01;10.90;55.00
2749;DHT22;1382;52.142;11.618;2024-02-26T11:16:31;10.90;54.80
2749;DHT22;1382;52.142;11.618;2024-02-26T11:18:59;10.90;54.40
2749;DHT22;1382;52.142;11.618;2024-02-26T11:21:27;10.90;54.30
2749;DHT22;1382;52.142;11.618;2024-02-26T11:23:56;11.10;54.70
2749;DHT22;1382;52.142;11.618;2024-02-26T11:26:24;10.90;54.30
2749;DHT22;1382;52.142;11.618;2024-02-26T11:28:53;11.00;54.40
2749;DHT22;1382;52.142;11.618;2024-02-26T11:31:20;11.00;54.50
2749;DHT22;1382;52.142;11.618;2024-02-26T11:33:52;11.00;54.40
2749;DHT22;1382;52.142;11.618;2024-02-26T11:36:19;11.00;54.40
2749;DHT22;1382;52.142;11.618;2024-02-26T11:38:46;11.20;54.60
2749;DHT22;1382;52.142;11.618;2024-02-26T11:41:15;11.10;54.50
2749;DHT22;1382;52.142;11.618;2024-02-26T11:43:53;11.10;54.80
2749;DHT22;1382;52.142;11.618;2024-02-26T11:46:27;11.20;54.80
2749;DHT22;1382;52.142;11.618;2024-02-26T11:48:58;11.20;54.50
2749;DHT22;1382;52.142;11.618;2024-02-26T11:51:26;11.20;54.50
2749;DHT22;1382;52.142;11.618;2024-02-26T11:53:54;11.20;54.80
2749;DHT22;1382;52.142;11.618;2024-02-26T11:56:22;11.30;54.60
2749;DHT22;1382;52.142;11.618;2024-02-26T11:58:56;11.30;54.50
2749;DHT22;1382;52.142;11.618;2024-02-26T12:01:40;11.30;55.20
2749;DHT22;1382;52.142;11.618;2024-02-26T12:04:14;11.40;54.50
2749;DHT22;1382;52.142;11.618;2024-02-26T12:06:45;11.30;54.40
2749;DHT22;1382;52.142;11.618;2024-02-26T12:09:13;11.30;54.30
2749;DHT22;1382;52.142;11.618;2024-02-26T12:11:41;11.40;54.60
2749;DHT22;1382;52.142;11.618;2024-02-26T12:14:09;11.50;55.10
2749;DHT22;1382;52.142;11.618;2024-02-26T12:16:37;11.50;54.50
2749;DHT22;1382;52.142;11.618;2024-02-26T12:19:05;11.60;54.60
2749;DHT22;1382;52.142;11.618;2024-02-26T12:21:35;11.50;54.90
2749;DHT22;1382;52.142;11.618;2024-02-26T12:24:10;11.60;54.90
2749;DHT22;1382;52.142;11.618;2024-02-26T12:26:38;11.70;54.80
2749;DHT22;1382;52.142;11.618;2024-02-26T12:29:05;11.60;54.50
2749;DHT22;1382;52.142;11.618;2024-02-26T12:31:32;11.70;54.30
2749;DHT22;1382;52.142;11.618;2024-02-26T12:33:59;11.70;54.40
2749;DHT22;1382;52.142;11.618;2024-02-26T12:36:27;11.70;54.60
2749;DHT22;1382;52.142;11.618;2024-02-26T12:38:55;11.70;54.50
2749;DHT22;1382;52.142;11.618;2024-02-26T12:41:22;11.70;54.40
2749;DHT22;1382;52.142;11.618;2024-02-26T12:43:49;11.80;54.60
2749;DHT22;1382;52.142;11.618;2024-02-26T12:46:16;11.80;54.80
2749;DHT22;1382;52.142;11.618;2024-02-26T12:48:43;11.80;54.60
2749;DHT22;1382;52.142;11.618;2024-02-26T12:51:11;11.90;54.80
2749;DHT22;1382;52.142;11.618;2024-02-26T12:53:38;11.90;54.90
2749;DHT22;1382;52.142;11.618;2024-02-26T12:56:07;12.00;54.80
2749;DHT22;1382;52.142;11.618;2024-02-26T12:58:36;12.00;54.80
2749;DHT22;1382;52.142;11.618;2024-02-26T13:01:04;12.00;54.70
2749;DHT22;1382;52.142;11.618;2024-02-26T13:03:32;12.00;54.60
2749;DHT22;1382;52.142;11.618;2024-02-26T13:05:59;12.00;54.80
2749;DHT22;1382;52.142;11.618;2024-02-26T13:08:27;12.10;54.90
2749;DHT22;1382;52.142;11.618;2024-02-26T13:10:53;12.20;55.00
2749;DHT22;1382;52.142;11.618;2024-02-26T13:13:22;12.20;54.90
2749;DHT22;1382;52.142;11.618;2024-02-26T13:15:49;12.20;54.80
2749;DHT22;1382;52.142;11.618;2024-02-26T13:18:16;12.20;55.00
2749;DHT22;1382;52.142;11.618;2024-02-26T13:20:43;12.30;55.00
2749;DHT22;1382;52.142;11.618;2024-02-26T13:23:12;12.30;55.00
2749;DHT22;1382;52.142;11.618;2024-02-26T13:25:39;12.40;54.90
2749;DHT22;1382;52.142;11.618;2024-02-26T13:28:14;12.20;54.80
2749;DHT22;1382;52.142;11.618;2024-02-26T13:30:49;12.50;55.00
2749;DHT22;1382;52.142;11.618;2024-02-26T13:33:16;12.50;54.70
2749;DHT22;1382;52.142;11.618;2024-02-26T13:35:43;12.50;54.80
2749;DHT22;1382;52.142;11.618;2024-02-26T13:38:10;12.60;54.80
2749;DHT22;1382;52.142;11.618;2024-02-26T13:40:37;12.60;54.60
2749;DHT22;1382;52.142;11.618;2024-02-26T13:43:04;12.80;54.60
2749;DHT22;1382;52.142;11.618;2024-02-26T13:45:34;12.70;54.50
2749;DHT22;1382;52.142;11.618;2024-02-26T13:48:04;12.60;54.50
2749;DHT22;1382;52.142;11.618;2024-02-26T13:50:31;12.60;54.40
2749;DHT22;1382;52.142;11.618;2024-02-26T13:52:58;12.60;54.60
2749;DHT22;1382;52.142;11.618;2024-02-26T13:55:25;12.70;54.30
2749;DHT22;1382;52.142;11.618;2024-02-26T13:57:52;12.70;54.30
2749;DHT22;1382;52.142;11.618;2024-02-26T14:00:19;12.70;54.90
2749;DHT22;1382;52.142;11.618;2024-02-26T14:02:46;12.70;54.40
2749;DHT22;1382;52.142;11.618;2024-02-26T14:05:14;12.70;54.20
2749;DHT22;1382;52.142;11.618;2024-02-26T14:07:41;12.80;54.20
2749;DHT22;1382;52.142;11.618;2024-02-26T14:10:09;12.80;54.20
2749;DHT22;1382;52.142;11.618;2024-02-26T14:12:38;12.80;54.40
2749;DHT22;1382;52.142;11.618;2024-02-26T14:15:06;12.80;54.10
2749;DHT22;1382;52.142;11.618;2024-02-26T14:17:33;12.90;54.30
2749;DHT22;1382;52.142;11.618;2024-02-26T14:20:00;12.90;54.20
2749;DHT22;1382;52.142;11.618;2024-02-26T14:22:28;12.90;54.10
2749;DHT22;1382;52.142;11.618;2024-02-26T14:24:55;12.90;54.10
2749;DHT22;1382;52.142;11.618;2024-02-26T14:27:22;12.90;54.10
2749;DHT22;1382;52.142;11.618;2024-02-26T14:29:49;12.90;54.10
2749;DHT22;1382;52.142;11.618;2024-02-26T14:32:16;12.80;54.20
2749;DHT22;1382;52.142;11.618;2024-02-26T14:34:43;12.90;54.00
2749;DHT22;1382;52.142;11.618;2024-02-26T14:37:10;12.90;53.90
2749;DHT22;1382;52.142;11.618;2024-02-26T14:39:38;12.90;53.90
2749;DHT22;1382;52.142;11.618;2024-02-26T14:42:05;12.80;53.90
2749;DHT22;1382;52.142;11.618;2024-02-26T14:44:32;12.90;54.10
2749;DHT22;1382;52.142;11.618;2024-02-26T14:47:01;12.90;54.10
2749;DHT22;1382;52.142;11.618;2024-02-26T14:49:28;12.90;54.10
2749;DHT22;1382;52.142;11.618;2024-02-26T14:51:55;12.90;53.90
2749;DHT22;1382;52.142;11.618;2024-02-26T14:54:22;12.80;54.00
2749;DHT22;1382;52.142;11.618;2024-02-26T14:56:50;12.90;54.00
2749;DHT22;1382;52.142;11.618;2024-02-26T14:59:17;12.80;53.90
2749;DHT22;1382;52.142;11.618;2024-02-26T15:01:44;12.80;54.00
2749;DHT22;1382;52.142;11.618;2024-02-26T15:04:13;12.80;54.00
2749;DHT22;1382;52.142;11.618;2024-02-26T15:06:40;12.80;53.90
2749;DHT22;1382;52.142;11.618;2024-02-26T15:09:08;12.80;54.10
2749;DHT22;1382;52.142;11.618;2024-02-26T15:11:38;12.80;54.20
2749;DHT22;1382;52.142;11.618;2024-02-26T15:14:07;12.80;54.20
2749;DHT22;1382;52.142;11.618;2024-02-26T15:16:33;12.80;54.20
2749;DHT22;1382;52.142;11.618;2024-02-26T15:19:01;12.80;54.20
2749;DHT22;1382;52.142;11.618;2024-02-26T15:21:28;12.80;54.20
2749;DHT22;1382;52.142;11.618;2024-02-26T15:23:55;12.90;54.30
2749;DHT22;1382;52.142;11.618;2024-02-26T15:26:33;12.80;54.20
2749;DHT22;1382;52.142;11.618;2024-02-26T15:29:00;12.80;54.20
2749;DHT22;1382;52.142;11.618;2024-02-26T15:31:28;12.80;55.00
2749;DHT22;1382;52.142;11.618;2024-02-26T15:33:55;12.80;54.40
2749;DHT22;1382;52.142;11.618;2024-02-26T15:36:22;12.80;54.30
2749;DHT22;1382;52.142;11.618;2024-02-26T15:38:49;12.80;54.30
2749;DHT22;1382;52.142;11.618;2024-02-26T15:41:16;12.90;54.40
2749;DHT22;1382;52.142;11.618;2024-02-26T15:43:43;12.80;54.30
2749;DHT22;1382;52.142;11.618;2024-02-26T15:46:10;13.00;54.50
2749;DHT22;1382;52.142;11.618;2024-02-26T15:48:41;12.80;54.30
2749;DHT22;1382;52.142;11.618;2024-02-26T15:51:08;12.80;54.30
2749;DHT22;1382;52.142;11.618;2024-02-26T15:53:34;12.80;54.30
2749;DHT22;1382;52.142;11.618;2024-02-26T15:56:01;12.90;54.30
2749;DHT22;1382;52.142;11.618;2024-02-26T15:58:28;12.80;54.30